sensor_id;sensor_type;location;lat;lon;timestamp;pressure;altitude;pressure_sealevel;temperature;humidity
57086;BME280;42964;42.910;23.792;2023-03-25T00:01:20;97253.00;;;8.81;66.96
57086;BME280;42964;42.910;23.792;2023-03-25T00:06:23;97252.09;;;8.88;67.20
57086;BME280;42964;42.910;23.792;2023-03-25T00:11:22;97246.06;;;8.91;66.81
57086;BME280;42964;42.910;23.792;2023-03-25T00:16:21;97245.19;;;8.87;66.84
57086;BME280;42964;42.910;23.792;2023-03-25T00:21:20;97234.84;;;8.90;67.15
57086;BME280;42964;42.910;23.792;2023-03-25T00:26:21;97215.03;;;8.86;66.94
57086;BME280;42964;42.910;23.792;2023-03-25T00:31:20;97214.13;;;8.87;66.69
57086;BME280;42964;42.910;23.792;2023-03-25T00:36:19;97224.47;;;8.92;66.05
57086;BME280;42964;42.910;23.792;2023-03-25T00:41:20;97218.50;;;8.79;66.44
57086;BME280;42964;42.910;23.792;2023-03-25T00:46:27;97213.28;;;8.93;65.71
57086;BME280;42964;42.910;23.792;2023-03-25T00:51:27;97215.88;;;8.93;65.58
57086;BME280;42964;42.910;23.792;2023-03-25T00:56:29;97210.63;;;9.05;65.42
57086;BME280;42964;42.910;23.792;2023-03-25T01:01:28;97202.00;;;9.08;64.92
57086;BME280;42964;42.910;23.792;2023-03-25T01:06:31;97199.44;;;9.02;65.16
57086;BME280;42964;42.910;23.792;2023-03-25T01:11:32;97189.97;;;8.96;65.29
57086;BME280;42964;42.910;23.792;2023-03-25T01:16:36;97190.88;;;8.89;65.11
57086;BME280;42964;42.910;23.792;2023-03-25T01:21:35;97199.47;;;8.88;65.45
57086;BME280;42964;42.910;23.792;2023-03-25T01:26:34;97179.69;;;8.78;65.94
57086;BME280;42964;42.910;23.792;2023-03-25T01:31:34;97141.78;;;8.64;65.86
57086;BME280;42964;42.910;23.792;2023-03-25T01:36:33;97160.72;;;8.76;66.62
57086;BME280;42964;42.910;23.792;2023-03-25T01:41:35;97136.59;;;8.66;66.31
57086;BME280;42964;42.910;23.792;2023-03-25T01:46:37;97152.06;;;8.78;66.23
57086;BME280;42964;42.910;23.792;2023-03-25T01:51:39;97146.94;;;8.69;66.69
57086;BME280;42964;42.910;23.792;2023-03-25T01:56:40;97134.06;;;8.58;66.85
57086;BME280;42964;42.910;23.792;2023-03-25T02:01:40;97103.94;;;8.37;66.77
57086;BME280;42964;42.910;23.792;2023-03-25T02:06:44;97138.34;;;8.59;66.75
57086;BME280;42964;42.910;23.792;2023-03-25T02:11:44;97134.97;;;8.40;68.04
57086;BME280;42964;42.910;23.792;2023-03-25T02:22:42;97136.72;;;8.32;68.76
57086;BME280;42964;42.910;23.792;2023-03-25T02:28:00;97126.38;;;8.24;68.84
57086;BME280;42964;42.910;23.792;2023-03-25T02:38:33;97122.97;;;8.02;70.63
57086;BME280;42964;42.910;23.792;2023-03-25T02:43:52;97129.84;;;8.06;70.21
57086;BME280;42964;42.910;23.792;2023-03-25T02:54:05;97117.78;;;7.96;71.70
57086;BME280;42964;42.910;23.792;2023-03-25T02:59:07;97107.47;;;7.93;71.17
57086;BME280;42964;42.910;23.792;2023-03-25T03:04:07;97104.03;;;7.74;72.58
57086;BME280;42964;42.910;23.792;2023-03-25T03:30:48;97115.25;;;7.64;71.95
57086;BME280;42964;42.910;23.792;2023-03-25T03:36:11;97119.53;;;7.54;72.10
57086;BME280;42964;42.910;23.792;2023-03-25T03:41:14;97117.81;;;7.55;72.34
57086;BME280;42964;42.910;23.792;2023-03-25T03:46:27;97129.81;;;7.39;73.09
57086;BME280;42964;42.910;23.792;2023-03-25T03:56:44;97099.66;;;7.13;73.34
57086;BME280;42964;42.910;23.792;2023-03-25T04:01:50;97123.75;;;7.26;73.88
57086;BME280;42964;42.910;23.792;2023-03-25T04:06:58;97063.50;;;6.93;72.77
57086;BME280;42964;42.910;23.792;2023-03-25T04:12:05;97079.00;;;6.99;72.47
57086;BME280;42964;42.910;23.792;2023-03-25T04:17:07;97142.69;;;7.33;73.21
57086;BME280;42964;42.910;23.792;2023-03-25T04:22:07;97117.75;;;7.19;73.34
57086;BME280;42964;42.910;23.792;2023-03-25T04:27:07;97134.94;;;7.25;74.08
57086;BME280;42964;42.910;23.792;2023-03-25T04:32:07;97153.94;;;7.41;73.39
57086;BME280;42964;42.910;23.792;2023-03-25T04:37:07;97146.22;;;7.50;72.45
57086;BME280;42964;42.910;23.792;2023-03-25T04:42:06;97150.53;;;7.65;72.25
57086;BME280;42964;42.910;23.792;2023-03-25T04:47:08;97148.81;;;7.75;72.12
57086;BME280;42964;42.910;23.792;2023-03-25T04:52:12;96956.88;;;6.67;71.26
57086;BME280;42964;42.910;23.792;2023-03-25T04:57:11;97153.97;;;8.02;70.74
57086;BME280;42964;42.910;23.792;2023-03-25T05:02:10;97147.06;;;8.17;70.52
57086;BME280;42964;42.910;23.792;2023-03-25T05:07:10;97154.81;;;8.32;69.87
57086;BME280;42964;42.910;23.792;2023-03-25T05:12:10;97149.56;;;8.61;69.35
57086;BME280;42964;42.910;23.792;2023-03-25T05:17:09;97156.34;;;8.91;68.50
57086;BME280;42964;42.910;23.792;2023-03-25T05:22:09;97161.41;;;9.19;67.21
57086;BME280;42964;42.910;23.792;2023-03-25T05:27:08;97150.03;;;9.46;66.80
57086;BME280;42964;42.910;23.792;2023-03-25T05:32:07;97151.56;;;9.78;66.00
57086;BME280;42964;42.910;23.792;2023-03-25T05:37:06;97155.72;;;9.97;66.11
57086;BME280;42964;42.910;23.792;2023-03-25T05:42:05;97162.41;;;10.25;65.35
57086;BME280;42964;42.910;23.792;2023-03-25T05:47:04;97162.94;;;10.57;64.66
57086;BME280;42964;42.910;23.792;2023-03-25T05:52:03;97166.16;;;10.81;62.94
57086;BME280;42964;42.910;23.792;2023-03-25T05:57:02;97151.91;;;11.16;61.29
57086;BME280;42964;42.910;23.792;2023-03-25T06:02:01;97152.41;;;11.45;60.39
57086;BME280;42964;42.910;23.792;2023-03-25T06:07:01;97155.41;;;11.75;59.67
57086;BME280;42964;42.910;23.792;2023-03-25T06:12:02;97155.03;;;12.00;58.92
57086;BME280;42964;42.910;23.792;2023-03-25T06:17:01;97142.44;;;12.26;58.18
57086;BME280;42964;42.910;23.792;2023-03-25T06:22:00;97151.47;;;12.55;58.32
57086;BME280;42964;42.910;23.792;2023-03-25T06:26:59;97157.00;;;12.85;58.29
57086;BME280;42964;42.910;23.792;2023-03-25T06:31:58;97156.44;;;13.12;58.22
57086;BME280;42964;42.910;23.792;2023-03-25T06:36:58;97150.31;;;13.15;58.02
57086;BME280;42964;42.910;23.792;2023-03-25T06:41:57;97162.00;;;13.38;57.48
57086;BME280;42964;42.910;23.792;2023-03-25T06:46:56;97172.09;;;13.54;57.23
57086;BME280;42964;42.910;23.792;2023-03-25T06:51:55;97163.91;;;13.70;57.30
57086;BME280;42964;42.910;23.792;2023-03-25T06:56:54;97176.81;;;13.74;57.75
57086;BME280;42964;42.910;23.792;2023-03-25T07:01:53;97181.44;;;14.01;57.08
57086;BME280;42964;42.910;23.792;2023-03-25T07:06:51;97186.91;;;14.27;56.58
57086;BME280;42964;42.910;23.792;2023-03-25T07:11:51;97178.41;;;14.52;53.68
57086;BME280;42964;42.910;23.792;2023-03-25T07:16:50;97170.69;;;14.83;50.97
57086;BME280;42964;42.910;23.792;2023-03-25T07:21:49;97165.47;;;15.13;49.53
57086;BME280;42964;42.910;23.792;2023-03-25T07:26:47;97154.91;;;15.47;48.43
57086;BME280;42964;42.910;23.792;2023-03-25T07:31:46;97153.25;;;15.73;45.83
57086;BME280;42964;42.910;23.792;2023-03-25T07:36:45;97161.06;;;16.02;45.77
57086;BME280;42964;42.910;23.792;2023-03-25T07:41:44;97121.28;;;16.18;45.70
57086;BME280;42964;42.910;23.792;2023-03-25T07:46:46;97125.16;;;16.58;43.96
57086;BME280;42964;42.910;23.792;2023-03-25T07:51:45;97142.97;;;17.22;43.65
57086;BME280;42964;42.910;23.792;2023-03-25T07:56:44;97142.16;;;17.65;40.84
57086;BME280;42964;42.910;23.792;2023-03-25T08:01:43;97136.44;;;18.22;41.64
57086;BME280;42964;42.910;23.792;2023-03-25T08:06:42;97131.50;;;18.77;41.01
57086;BME280;42964;42.910;23.792;2023-03-25T08:11:41;97122.75;;;19.16;40.16
57086;BME280;42964;42.910;23.792;2023-03-25T08:16:40;97121.66;;;19.39;39.02
57086;BME280;42964;42.910;23.792;2023-03-25T08:21:39;97120.00;;;19.57;38.70
57086;BME280;42964;42.910;23.792;2023-03-25T08:26:38;96858.56;;;18.30;37.19
57086;BME280;42964;42.910;23.792;2023-03-25T08:31:37;97109.31;;;19.96;33.80
57086;BME280;42964;42.910;23.792;2023-03-25T08:36:38;97110.97;;;19.99;33.18
57086;BME280;42964;42.910;23.792;2023-03-25T08:41:38;97113.75;;;20.13;33.91
57086;BME280;42964;42.910;23.792;2023-03-25T08:46:37;97119.19;;;20.10;32.39
57086;BME280;42964;42.910;23.792;2023-03-25T08:51:36;97115.88;;;20.24;32.80
57086;BME280;42964;42.910;23.792;2023-03-25T08:56:35;97108.66;;;20.27;32.59
57086;BME280;42964;42.910;23.792;2023-03-25T09:01:34;97098.28;;;20.42;32.33
57086;BME280;42964;42.910;23.792;2023-03-25T09:06:33;97104.75;;;20.87;33.28
57086;BME280;42964;42.910;23.792;2023-03-25T09:11:32;97101.03;;;21.24;32.79
57086;BME280;42964;42.910;23.792;2023-03-25T09:16:31;97044.13;;;21.19;31.22
57086;BME280;42964;42.910;23.792;2023-03-25T09:21:31;97096.44;;;21.60;31.22
57086;BME280;42964;42.910;23.792;2023-03-25T09:26:30;97088.81;;;21.06;31.15
57086;BME280;42964;42.910;23.792;2023-03-25T09:31:29;97071.75;;;20.80;31.81
57086;BME280;42964;42.910;23.792;2023-03-25T09:36:28;97084.66;;;20.84;31.61
57086;BME280;42964;42.910;23.792;2023-03-25T09:46:38;97069.09;;;20.96;30.38
57086;BME280;42964;42.910;23.792;2023-03-25T09:51:38;97069.34;;;20.75;30.42
57086;BME280;42964;42.910;23.792;2023-03-25T09:56:40;97053.22;;;20.97;30.23
57086;BME280;42964;42.910;23.792;2023-03-25T10:12:25;97048.44;;;21.83;30.35
57086;BME280;42964;42.910;23.792;2023-03-25T10:23:09;97027.94;;;22.33;29.08
57086;BME280;42964;42.910;23.792;2023-03-25T10:28:15;97035.03;;;22.32;29.26
57086;BME280;42964;42.910;23.792;2023-03-25T10:33:36;97018.22;;;22.48;28.66
57086;BME280;42964;42.910;23.792;2023-03-25T10:38:37;97001.06;;;22.98;28.10
57086;BME280;42964;42.910;23.792;2023-03-25T10:43:39;96963.72;;;23.30;28.29
57086;BME280;42964;42.910;23.792;2023-03-25T10:48:38;96880.88;;;22.88;28.17
57086;BME280;42964;42.910;23.792;2023-03-25T10:53:39;96972.78;;;23.13;27.48
57086;BME280;42964;42.910;23.792;2023-03-25T10:58:41;96978.97;;;23.26;27.39
57086;BME280;42964;42.910;23.792;2023-03-25T11:03:42;96953.56;;;23.23;27.84
57086;BME280;42964;42.910;23.792;2023-03-25T11:14:37;96932.91;;;22.74;27.81
57086;BME280;42964;42.910;23.792;2023-03-25T11:19:44;96961.28;;;23.27;27.36
57086;BME280;42964;42.910;23.792;2023-03-25T11:24:49;96960.28;;;23.15;27.29
57086;BME280;42964;42.910;23.792;2023-03-25T11:29:54;96949.13;;;23.37;27.33
57086;BME280;42964;42.910;23.792;2023-03-25T11:34:54;96950.25;;;22.93;28.00
57086;BME280;42964;42.910;23.792;2023-03-25T11:39:54;96903.78;;;22.60;27.70
57086;BME280;42964;42.910;23.792;2023-03-25T11:44:55;96934.19;;;22.67;28.03
57086;BME280;42964;42.910;23.792;2023-03-25T11:49:58;96935.69;;;23.00;28.28
57086;BME280;42964;42.910;23.792;2023-03-25T11:54:59;96898.94;;;22.81;28.16
57086;BME280;42964;42.910;23.792;2023-03-25T12:05:19;96905.69;;;22.58;29.21
57086;BME280;42964;42.910;23.792;2023-03-25T12:15:46;96919.34;;;22.93;29.64
57086;BME280;42964;42.910;23.792;2023-03-25T12:21:13;96906.06;;;22.37;30.28
57086;BME280;42964;42.910;23.792;2023-03-25T12:26:18;96908.69;;;22.52;30.15
57086;BME280;42964;42.910;23.792;2023-03-25T12:36:37;96916.81;;;22.20;30.93
57086;BME280;42964;42.910;23.792;2023-03-25T12:47:06;96914.63;;;21.53;32.28
57086;BME280;42964;42.910;23.792;2023-03-25T12:52:34;96920.44;;;21.44;32.93
57086;BME280;42964;42.910;23.792;2023-03-25T13:03:19;96922.34;;;20.79;34.34
57086;BME280;42964;42.910;23.792;2023-03-25T13:13:32;96910.44;;;21.03;33.77
57086;BME280;42964;42.910;23.792;2023-03-25T13:18:37;96922.69;;;20.88;32.70
57086;BME280;42964;42.910;23.792;2023-03-25T13:23:39;96940.47;;;20.69;33.85
57086;BME280;42964;42.910;23.792;2023-03-25T13:29:03;96921.41;;;20.64;34.06
57086;BME280;42964;42.910;23.792;2023-03-25T13:34:40;96897.84;;;20.45;34.84
57086;BME280;42964;42.910;23.792;2023-03-25T13:39:54;96886.06;;;20.35;35.30
57086;BME280;42964;42.910;23.792;2023-03-25T13:44:56;96891.31;;;20.84;35.34
57086;BME280;42964;42.910;23.792;2023-03-25T13:50:01;96879.41;;;21.39;35.11
57086;BME280;42964;42.910;23.792;2023-03-25T13:55:18;96876.91;;;21.66;34.45
57086;BME280;42964;42.910;23.792;2023-03-25T14:00:59;96877.81;;;21.95;33.22
57086;BME280;42964;42.910;23.792;2023-03-25T14:06:31;96881.91;;;22.01;31.74
57086;BME280;42964;42.910;23.792;2023-03-25T14:11:57;96859.63;;;21.16;32.59
57086;BME280;42964;42.910;23.792;2023-03-25T14:17:02;96910.44;;;21.03;34.31
57086;BME280;42964;42.910;23.792;2023-03-25T14:22:23;96907.91;;;20.54;36.26
57086;BME280;42964;42.910;23.792;2023-03-25T14:27:29;96907.09;;;20.03;36.71
57086;BME280;42964;42.910;23.792;2023-03-25T14:32:36;96931.06;;;19.63;38.96
57086;BME280;42964;42.910;23.792;2023-03-25T14:37:35;96932.84;;;19.27;40.21
57086;BME280;42964;42.910;23.792;2023-03-25T14:42:41;96946.09;;;18.70;42.87
57086;BME280;42964;42.910;23.792;2023-03-25T14:47:54;96892.38;;;17.98;46.25
57086;BME280;42964;42.910;23.792;2023-03-25T14:53:04;96950.91;;;18.21;46.75
57086;BME280;42964;42.910;23.792;2023-03-25T15:03:14;96949.09;;;18.02;46.80
57086;BME280;42964;42.910;23.792;2023-03-25T15:08:20;96954.91;;;18.29;46.92
57086;BME280;42964;42.910;23.792;2023-03-25T15:13:28;96945.13;;;18.52;48.55
57086;BME280;42964;42.910;23.792;2023-03-25T15:23:50;96883.63;;;18.56;50.82
57086;BME280;42964;42.910;23.792;2023-03-25T15:50:17;96871.75;;;18.47;49.59
57086;BME280;42964;42.910;23.792;2023-03-25T15:55:25;96868.50;;;18.42;49.24
57086;BME280;42964;42.910;23.792;2023-03-25T16:05:39;96874.91;;;18.17;48.86
57086;BME280;42964;42.910;23.792;2023-03-25T16:10:42;96858.41;;;17.95;49.78
57086;BME280;42964;42.910;23.792;2023-03-25T16:15:44;96832.28;;;17.52;49.90
57086;BME280;42964;42.910;23.792;2023-03-25T16:20:44;96864.84;;;17.47;50.89
57086;BME280;42964;42.910;23.792;2023-03-25T16:25:47;96844.44;;;17.33;50.33
57086;BME280;42964;42.910;23.792;2023-03-25T16:30:51;96867.19;;;17.32;50.37
57086;BME280;42964;42.910;23.792;2023-03-25T16:36:05;96863.28;;;17.22;51.10
57086;BME280;42964;42.910;23.792;2023-03-25T16:41:09;96850.88;;;17.05;51.41
57086;BME280;42964;42.910;23.792;2023-03-25T16:46:11;96857.47;;;16.93;51.52
57086;BME280;42964;42.910;23.792;2023-03-25T16:51:25;96842.91;;;16.86;51.62
57086;BME280;42964;42.910;23.792;2023-03-25T16:56:36;96847.81;;;16.72;51.51
57086;BME280;42964;42.910;23.792;2023-03-25T17:01:41;96841.41;;;16.57;51.69
57086;BME280;42964;42.910;23.792;2023-03-25T17:06:45;96834.94;;;16.44;51.68
57086;BME280;42964;42.910;23.792;2023-03-25T17:11:52;96829.47;;;16.28;52.17
57086;BME280;42964;42.910;23.792;2023-03-25T17:16:54;96839.38;;;16.20;52.79
57086;BME280;42964;42.910;23.792;2023-03-25T17:22:14;96840.75;;;16.06;53.71
57086;BME280;42964;42.910;23.792;2023-03-25T17:27:35;96844.25;;;15.83;55.32
57086;BME280;42964;42.910;23.792;2023-03-25T17:32:42;96836.72;;;15.73;55.27
57086;BME280;42964;42.910;23.792;2023-03-25T17:37:46;96840.69;;;15.59;56.08
57086;BME280;42964;42.910;23.792;2023-03-25T17:42:45;96837.50;;;15.51;56.15
57086;BME280;42964;42.910;23.792;2023-03-25T17:47:44;96840.66;;;15.36;57.09
57086;BME280;42964;42.910;23.792;2023-03-25T17:52:44;96846.34;;;15.22;57.70
57086;BME280;42964;42.910;23.792;2023-03-25T17:57:43;96849.28;;;15.13;56.29
57086;BME280;42964;42.910;23.792;2023-03-25T18:02:42;96856.56;;;15.03;55.91
57086;BME280;42964;42.910;23.792;2023-03-25T18:07:41;96854.31;;;14.92;56.54
57086;BME280;42964;42.910;23.792;2023-03-25T18:12:40;96856.72;;;14.72;58.57
57086;BME280;42964;42.910;23.792;2023-03-25T18:17:39;96869.25;;;14.59;61.08
57086;BME280;42964;42.910;23.792;2023-03-25T18:22:38;96863.00;;;14.36;61.73
57086;BME280;42964;42.910;23.792;2023-03-25T18:27:37;96865.22;;;14.20;61.28
57086;BME280;42964;42.910;23.792;2023-03-25T18:32:37;96867.94;;;14.17;60.36
57086;BME280;42964;42.910;23.792;2023-03-25T18:37:35;96862.97;;;14.08;59.84
57086;BME280;42964;42.910;23.792;2023-03-25T18:42:34;96858.06;;;13.97;59.91
57086;BME280;42964;42.910;23.792;2023-03-25T18:47:35;96868.94;;;13.82;60.87
57086;BME280;42964;42.910;23.792;2023-03-25T18:52:40;96867.34;;;13.44;61.83
57086;BME280;42964;42.910;23.792;2023-03-25T18:57:45;96869.34;;;13.34;62.29
57086;BME280;42964;42.910;23.792;2023-03-25T19:02:51;96877.47;;;13.22;62.68
57086;BME280;42964;42.910;23.792;2023-03-25T19:07:51;96881.28;;;13.08;64.24
57086;BME280;42964;42.910;23.792;2023-03-25T19:12:50;96885.88;;;12.99;65.19
57086;BME280;42964;42.910;23.792;2023-03-25T19:17:49;96886.81;;;12.96;66.83
57086;BME280;42964;42.910;23.792;2023-03-25T19:22:48;96880.25;;;12.80;67.33
57086;BME280;42964;42.910;23.792;2023-03-25T19:27:47;96864.16;;;12.62;67.45
57086;BME280;42964;42.910;23.792;2023-03-25T19:32:47;96884.19;;;12.60;68.45
57086;BME280;42964;42.910;23.792;2023-03-25T19:37:46;96870.69;;;12.43;70.72
57086;BME280;42964;42.910;23.792;2023-03-25T19:42:51;96869.38;;;12.23;72.37
57086;BME280;42964;42.910;23.792;2023-03-25T19:47:50;96841.22;;;12.02;71.67
57086;BME280;42964;42.910;23.792;2023-03-25T19:52:51;96855.13;;;11.99;72.05
57086;BME280;42964;42.910;23.792;2023-03-25T19:57:51;96868.25;;;11.93;72.30
57086;BME280;42964;42.910;23.792;2023-03-25T20:02:53;96873.56;;;11.87;71.46
57086;BME280;42964;42.910;23.792;2023-03-25T20:07:53;96882.28;;;11.86;71.50
57086;BME280;42964;42.910;23.792;2023-03-25T20:12:56;96893.06;;;11.66;73.64
57086;BME280;42964;42.910;23.792;2023-03-25T20:17:55;96907.03;;;11.59;74.17
57086;BME280;42964;42.910;23.792;2023-03-25T20:22:54;96931.19;;;11.64;72.44
57086;BME280;42964;42.910;23.792;2023-03-25T20:27:53;96934.94;;;11.51;73.44
57086;BME280;42964;42.910;23.792;2023-03-25T20:32:53;96950.38;;;11.57;72.69
57086;BME280;42964;42.910;23.792;2023-03-25T20:37:52;96964.38;;;11.50;73.03
57086;BME280;42964;42.910;23.792;2023-03-25T20:42:51;96957.09;;;11.19;74.08
57086;BME280;42964;42.910;23.792;2023-03-25T20:47:50;97000.81;;;11.46;73.73
57086;BME280;42964;42.910;23.792;2023-03-25T20:52:49;97015.53;;;11.46;73.61
57086;BME280;42964;42.910;23.792;2023-03-25T20:57:48;97045.53;;;11.64;73.49
57086;BME280;42964;42.910;23.792;2023-03-25T21:02:47;97038.63;;;11.64;73.58
57086;BME280;42964;42.910;23.792;2023-03-25T21:07:47;97040.41;;;11.62;72.54
57086;BME280;42964;42.910;23.792;2023-03-25T21:12:46;97062.09;;;11.58;72.54
57086;BME280;42964;42.910;23.792;2023-03-25T21:17:45;97075.03;;;11.63;73.16
57086;BME280;42964;42.910;23.792;2023-03-25T21:22:44;97077.63;;;11.63;74.33
57086;BME280;42964;42.910;23.792;2023-03-25T21:27:43;97066.94;;;11.81;73.38
57086;BME280;42964;42.910;23.792;2023-03-25T21:32:42;97076.09;;;12.02;72.92
57086;BME280;42964;42.910;23.792;2023-03-25T21:37:41;97090.78;;;12.05;72.92
57086;BME280;42964;42.910;23.792;2023-03-25T21:42:41;97065.44;;;12.16;71.61
57086;BME280;42964;42.910;23.792;2023-03-25T21:47:41;97054.91;;;12.22;70.31
57086;BME280;42964;42.910;23.792;2023-03-25T21:52:41;97049.75;;;12.21;70.44
57086;BME280;42964;42.910;23.792;2023-03-25T21:57:46;97041.16;;;12.16;69.87
57086;BME280;42964;42.910;23.792;2023-03-25T22:02:45;97050.00;;;12.07;69.80
57086;BME280;42964;42.910;23.792;2023-03-25T22:07:44;97044.91;;;12.01;69.29
57086;BME280;42964;42.910;23.792;2023-03-25T22:12:43;97036.34;;;11.96;69.36
57086;BME280;42964;42.910;23.792;2023-03-25T22:17:42;97032.06;;;11.92;70.14
57086;BME280;42964;42.910;23.792;2023-03-25T22:22:41;97038.00;;;12.00;69.57
57086;BME280;42964;42.910;23.792;2023-03-25T22:27:40;97039.88;;;11.92;69.35
57086;BME280;42964;42.910;23.792;2023-03-25T22:32:39;97024.44;;;11.84;70.10
57086;BME280;42964;42.910;23.792;2023-03-25T22:37:38;97015.16;;;11.69;70.87
57086;BME280;42964;42.910;23.792;2023-03-25T22:42:37;97011.81;;;11.61;71.54
57086;BME280;42964;42.910;23.792;2023-03-25T22:47:36;97009.22;;;11.61;71.02
57086;BME280;42964;42.910;23.792;2023-03-25T22:52:35;97011.66;;;11.70;70.97
57086;BME280;42964;42.910;23.792;2023-03-25T22:57:34;97012.44;;;11.75;70.90
57086;BME280;42964;42.910;23.792;2023-03-25T23:02:33;97021.97;;;11.75;70.83
57086;BME280;42964;42.910;23.792;2023-03-25T23:07:32;97024.41;;;11.85;70.91
57086;BME280;42964;42.910;23.792;2023-03-25T23:12:31;97035.97;;;11.67;71.09
57086;BME280;42964;42.910;23.792;2023-03-25T23:17:30;97035.91;;;11.72;71.49
57086;BME280;42964;42.910;23.792;2023-03-25T23:22:29;97056.00;;;11.61;71.70
57086;BME280;42964;42.910;23.792;2023-03-25T23:27:28;97046.50;;;11.60;71.57
57086;BME280;42964;42.910;23.792;2023-03-25T23:32:28;97064.25;;;11.32;73.03
57086;BME280;42964;42.910;23.792;2023-03-25T23:37:27;97104.75;;;10.80;76.67
57086;BME280;42964;42.910;23.792;2023-03-25T23:42:26;97108.00;;;10.18;81.42
57086;BME280;42964;42.910;23.792;2023-03-25T23:47:25;97105.41;;;10.22;81.04
57086;BME280;42964;42.910;23.792;2023-03-25T23:52:24;97124.03;;;10.57;80.56
57086;BME280;42964;42.910;23.792;2023-03-25T23:57:24;97121.06;;;10.91;79.03
